Aviation Digital Data Service (ADDS)

Output produced by METARs form (1329 UTC 31 July 2014)
found at http://www.aviationweather.gov/adds/metars/
 
METAR text: KCMI 311253Z 31003KT 10SM CLR 18/16 A3009 RMK AO2 SLP185 T01830161 $
Conditions at: KCMI (CHAMPAIGN/URBANA, IL, US) observed 1253 UTC 31 July 2014
Temperature: 18.3°C (65°F)
Dewpoint: 16.1°C (61°F) [RH = 87%]
Pressure (altimeter): 30.09 inches Hg (1019.0 mb)
[Sea-level pressure: 1018.5 mb]
Winds: from the NW (310 degrees) at 3 MPH (3 knots; 1.6 m/s)
Visibility: 10 or more miles (16+ km)
Ceiling: at least 12,000 feet AGL
Clouds: sky clear below 12,000 feet AGL
Weather:
SOME DATA ABOVE MAY BE INACCURATE!!!
"$" is an indication the sensor requires maintenance

METAR text: KCMI 311153Z 30003KT 8SM CLR 16/14 A3008 RMK AO2 SLP183 T01560144 10167 20133 53004
Conditions at: KCMI (CHAMPAIGN/URBANA, IL, US) observed 1153 UTC 31 July 2014
Temperature: 15.6°C (60°F)
Dewpoint: 14.4°C (58°F) [RH = 93%]
Pressure (altimeter): 30.08 inches Hg (1018.7 mb)
[Sea-level pressure: 1018.3 mb]
Winds: from the WNW (300 degrees) at 3 MPH (3 knots; 1.6 m/s)
Visibility: 8 miles (13 km)
Ceiling: at least 12,000 feet AGL
Clouds: sky clear below 12,000 feet AGL
Weather: no significant weather observed at this time

Forecast for: KCMI (CHAMPAIGN/URBANA, IL, US)
Text: KCMI 311256Z 3113/0112 29003KT P6SM SKC
Forecast period: 1300 to 1500 UTC 31 July 2014
Forecast type: FROM: standard forecast or significant change
Winds: from the WNW (290 degrees) at 3 MPH (3 knots; 1.6 m/s)
Visibility: 6 or more miles (10+ km)
Clouds: clear skies
Weather: no significant weather forecast for this period
Text: FM311500 26005KT P6SM SCT050
Forecast period: 1500 UTC 31 July 2014 to 0000 UTC 01 August 2014
Forecast type: FROM: standard forecast or significant change
Winds: from the W (260 degrees) at 6 MPH (5 knots; 2.6 m/s)
Visibility: 6 or more miles (10+ km)
Clouds: scattered clouds at 5000 feet AGL
Weather: no significant weather forecast for this period
Text: FM010000 VRB03KT P6SM SKC
Forecast period: 0000 to 1200 UTC 01 August 2014
Forecast type: FROM: standard forecast or significant change
Winds: variable direction winds at 3 MPH (3 knots; 1.6 m/s)
Visibility: 6 or more miles (10+ km)
Clouds: clear skies
Weather: no significant weather forecast for this period